Flugplatz Schwabmünchen

Für EDNS sind keine METAR/TAF Berichte vorhanden.
Es werden die Flugwettermeldungen vom Flugplatz Lechfeld Airport in 11 km Entfernung angezeigt.

Bericht für ETSL

vom 28.09. um 23:20 UTC

Wind 2 kt aus 360°

Sichtweite 10 km oder mehr

aufgebrochene Bewölkung in 1000 ft

Temperatur 13.0°C

Taupunkt 11.0°C

Luftfeuchtigkeit 88%

Luftdruck 1019 hPa

ETSL 282320Z 36002KT 9999 BKN010 13/11 Q1019 GRN
Keine Prognose (TAF) verfügbar.
Impressum